Ana Sayfa
METAR-TAF:

METAR-TAF

Havaalanları :

Gambell, Alaska, Amerika Birleşik Devletleri

Enlem: 63-46N, Boylam: 171-44W, yükseklik: 8 m

Güncel hava durumu gözlemi

Rapor saat 04:56 UTC de 1 saat ve 8 dakika önce yapıldı.
Rüzgar güneydoğudan 20 kt
Sıcaklık -3°C
Nem 93%
Basınç 1019 hPa
Görüş mesafesi: 14.5 km
Açık gökyüzü

METAR: PAGM 010456Z AUTO 14020KT 9SM CLR M03/M04 A3009 RMK AO2 SLPNO T10281039 FZRANO

Saat: 22:04 (06:04 UTC)


TAF: eksik

4.000'den fazla havaalanı için hava durumu gözlemleri ve tahminleri (METAR ve TAF raporları).

Kullanılabilir istasyonlar harita üzerinde sarı ve kırmızı noktalarla gösterilir.

İstasyonun adını görmek için fareyi noktanın üzerinde gezdirin.

Sonrasında hava gözlem ve tahminlerini görmek için tıklayın.

Haritayı değiştirmek için: yaklaştırmak için siyah artı işaretli yeşil düğmeye ve uzaklaştırmak için de eksi işaretli düğmeye hızla tıklayın; bitişik haritalar için yeşil okları kullanın.


METAR-TAF: